createdAt,value
2023-08-18T00:03:54.367Z,46.45
2023-08-18T00:08:51.616Z,47.95
2023-08-18T00:13:48.189Z,51.12
2023-08-18T00:18:44.675Z,52.36
2023-08-18T00:23:42.200Z,52.32
2023-08-18T00:28:39.691Z,51.43
2023-08-18T00:33:36.270Z,51.04
2023-08-18T00:38:32.763Z,50.71
2023-08-18T00:43:33.969Z,50.14
2023-08-18T00:48:31.525Z,49.97
2023-08-18T00:53:30.635Z,49.84
2023-08-18T00:58:27.692Z,49.14
2023-08-18T01:03:24.405Z,48.58
2023-08-18T01:08:23.974Z,48.59
2023-08-18T01:13:24.508Z,48.21
2023-08-18T01:18:21.348Z,47.97
2023-08-18T01:23:19.674Z,48.24
2023-08-18T01:28:16.263Z,48.02
2023-08-18T01:33:20.880Z,47.73
2023-08-18T01:38:19.266Z,47.98
2023-08-18T01:43:16.508Z,48.07
2023-08-18T01:48:13.340Z,48.25
2023-08-18T01:53:09.981Z,49.37
2023-08-18T01:58:06.512Z,49.14
2023-08-18T02:03:03.912Z,48.79
2023-08-18T02:08:01.916Z,48.29
2023-08-18T02:12:58.379Z,47.60
2023-08-18T02:17:55.566Z,47.38
2023-08-18T02:22:52.726Z,47.13
2023-08-18T02:27:49.393Z,47.86
2023-08-18T02:32:45.962Z,47.14
2023-08-18T02:37:42.474Z,47.50
2023-08-18T02:42:40.285Z,48.40
2023-08-18T02:47:38.634Z,48.74
2023-08-18T02:52:35.771Z,49.11
2023-08-18T02:57:32.591Z,49.24
2023-08-18T03:02:30.812Z,50.10
2023-08-18T03:07:27.594Z,50.23
2023-08-18T03:12:24.436Z,50.75
2023-08-18T03:17:20.961Z,50.97
2023-08-18T03:22:18.334Z,51.29
2023-08-18T03:27:14.911Z,50.75
2023-08-18T03:32:11.936Z,50.10
2023-08-18T03:37:08.862Z,50.33
2023-08-18T03:42:06.336Z,50.22
2023-08-18T03:47:03.343Z,50.17
2023-08-18T03:52:00.412Z,50.04
2023-08-18T03:56:57.093Z,50.35
2023-08-18T04:01:54.352Z,50.44
2023-08-18T04:06:50.985Z,49.22
2023-08-18T04:11:48.148Z,49.52
2023-08-18T04:16:45.753Z,49.54
2023-08-18T04:21:43.292Z,49.22
2023-08-18T04:26:39.849Z,49.72
2023-08-18T04:31:37.608Z,49.25
2023-08-18T04:36:49.184Z,50.48
2023-08-18T04:41:45.872Z,49.84
2023-08-18T04:46:42.708Z,50.91
2023-08-18T04:51:44.477Z,51.25
2023-08-18T04:56:42.975Z,51.18
2023-08-18T05:01:39.492Z,50.70
2023-08-18T05:06:36.354Z,51.49
2023-08-18T05:11:33.822Z,52.63
2023-08-18T05:16:31.081Z,52.95
2023-08-18T05:21:27.666Z,53.72
2023-08-18T05:26:24.244Z,54.33
2023-08-18T05:31:33.197Z,54.78
2023-08-18T05:36:30.685Z,56.20
2023-08-18T05:41:27.361Z,54.91
2023-08-18T05:46:23.974Z,54.58
2023-08-18T05:51:20.499Z,55.05
2023-08-18T05:56:18.510Z,59.31
2023-08-18T06:01:15.590Z,58.94
2023-08-18T06:06:12.130Z,58.95
2023-08-18T06:11:08.737Z,57.40
2023-08-18T06:16:06.328Z,56.82
2023-08-18T06:21:03.083Z,55.96
2023-08-18T06:25:59.685Z,55.08
2023-08-18T06:31:05.271Z,53.87
2023-08-18T06:36:02.609Z,55.69
2023-08-18T06:40:59.161Z,54.59
2023-08-18T06:45:55.945Z,55.64
2023-08-18T06:50:52.613Z,57.84
2023-08-18T06:55:59.032Z,57.72
2023-08-18T07:00:59.953Z,56.64
2023-08-18T07:06:03.064Z,55.40
2023-08-18T07:11:00.537Z,53.80
2023-08-18T07:15:57.182Z,51.47
2023-08-18T07:20:53.747Z,51.67
2023-08-18T07:25:50.444Z,51.72
2023-08-18T07:30:47.740Z,51.88
2023-08-18T07:35:46.002Z,53.49
2023-08-18T07:40:42.910Z,52.16
2023-08-18T07:45:39.613Z,53.60
2023-08-18T07:50:36.886Z,54.03
2023-08-18T07:55:33.703Z,53.90
2023-08-18T08:00:31.042Z,52.65
2023-08-18T08:05:27.538Z,51.35
2023-08-18T08:10:24.941Z,51.48
2023-08-18T08:15:21.505Z,52.39
2023-08-18T08:20:18.259Z,50.19
2023-08-18T08:25:15.081Z,49.83
2023-08-18T08:30:22.239Z,48.22
2023-08-18T08:35:30.182Z,41.96
2023-08-18T08:40:26.804Z,44.94
2023-08-18T08:45:24.527Z,45.57
2023-08-18T08:50:22.685Z,39.93
2023-08-18T08:55:21.730Z,38.73
2023-08-18T09:00:18.442Z,38.43
2023-08-18T09:05:15.703Z,38.21
2023-08-18T09:10:14.921Z,40.08
2023-08-18T09:15:13.209Z,36.64
2023-08-18T09:20:14.079Z,40.56
2023-08-18T09:25:12.745Z,41.04
2023-08-18T09:30:09.610Z,41.84
2023-08-18T09:35:10.966Z,41.15
2023-08-18T09:40:08.259Z,40.45
2023-08-18T09:45:06.195Z,40.93
2023-08-18T09:50:05.079Z,39.28
2023-08-18T09:55:08.300Z,39.33
2023-08-18T10:00:07.414Z,40.16
2023-08-18T10:05:08.636Z,40.87
2023-08-18T10:10:07.934Z,40.25
2023-08-18T10:15:06.236Z,40.42
2023-08-18T10:20:04.019Z,41.02
2023-08-18T10:25:00.590Z,39.13
2023-08-18T10:29:58.334Z,38.26
2023-08-18T10:35:17.622Z,39.16
2023-08-18T10:40:22.304Z,39.87
2023-08-18T10:45:27.393Z,39.83
2023-08-18T10:50:25.630Z,39.05
2023-08-18T10:55:22.438Z,38.92
2023-08-18T11:00:19.329Z,39.27
2023-08-18T11:05:17.522Z,40.80
2023-08-18T11:10:15.793Z,40.36
2023-08-18T11:15:12.619Z,40.35
2023-08-18T11:20:12.184Z,40.49
2023-08-18T11:25:12.060Z,40.40
2023-08-18T11:30:10.989Z,40.36
2023-08-18T11:35:10.236Z,39.96
2023-08-18T11:40:09.534Z,39.92
2023-08-18T11:45:07.838Z,39.79
2023-08-18T11:50:06.056Z,40.06
2023-08-18T11:55:04.553Z,39.75
2023-08-18T12:00:05.054Z,39.44
2023-08-18T12:05:06.459Z,38.67
2023-08-18T12:10:04.605Z,38.91
2023-08-18T12:15:01.117Z,38.80
2023-08-18T12:19:57.638Z,38.94
2023-08-18T12:24:54.965Z,39.45
2023-08-18T12:29:51.452Z,40.21
2023-08-18T12:34:50.681Z,40.00
2023-08-18T12:39:48.111Z,40.33
2023-08-18T12:44:46.003Z,41.48
2023-08-18T12:49:43.345Z,41.19
2023-08-18T12:54:40.348Z,41.03
2023-08-18T12:59:37.232Z,40.82
2023-08-18T13:04:36.312Z,40.85
2023-08-18T13:09:33.696Z,41.29
2023-08-18T13:14:30.231Z,41.12
2023-08-18T13:19:28.828Z,41.70
2023-08-18T13:24:26.162Z,41.67
2023-08-18T13:29:25.977Z,40.44
2023-08-18T13:34:22.891Z,40.00
2023-08-18T13:39:19.780Z,39.96
2023-08-18T13:44:17.016Z,39.83
2023-08-18T13:49:13.886Z,40.13
2023-08-18T13:54:12.364Z,40.67
2023-08-18T13:59:09.724Z,40.36
2023-08-18T14:04:07.071Z,39.87
2023-08-18T14:09:04.336Z,40.17
2023-08-18T14:14:01.118Z,38.77
2023-08-18T14:18:57.693Z,39.47
2023-08-18T14:23:54.915Z,38.81
2023-08-18T14:28:51.474Z,38.50
2023-08-18T14:33:48.141Z,37.87
2023-08-18T14:38:45.021Z,37.34
2023-08-18T14:43:42.530Z,37.06
2023-08-18T14:48:39.097Z,36.04
2023-08-18T14:53:36.850Z,34.55
2023-08-18T14:58:33.706Z,33.99
2023-08-18T15:03:31.018Z,33.29
2023-08-18T15:08:27.813Z,34.24
2023-08-18T15:13:24.376Z,37.14
2023-08-18T15:18:20.927Z,37.68
2023-08-18T15:23:18.173Z,36.82
2023-08-18T15:28:14.723Z,36.68
2023-08-18T15:33:11.334Z,36.90
2023-08-18T15:38:07.834Z,36.87
2023-08-18T15:43:05.020Z,36.78
2023-08-18T15:48:01.557Z,37.14
2023-08-18T15:52:58.093Z,37.47
2023-08-18T15:57:55.422Z,37.09
2023-08-18T16:02:52.662Z,33.46
2023-08-18T16:07:58.434Z,32.94
2023-08-18T16:12:55.312Z,31.95
2023-08-18T16:17:58.556Z,31.32
2023-08-18T16:22:58.293Z,31.40
2023-08-18T16:27:54.858Z,31.14
2023-08-18T16:32:52.139Z,31.54
2023-08-18T16:37:48.731Z,31.56
2023-08-18T16:42:45.301Z,31.47
2023-08-18T16:47:42.030Z,33.12
2023-08-18T16:52:39.262Z,35.67
2023-08-18T16:57:35.863Z,35.57
2023-08-18T17:02:32.532Z,35.33
2023-08-18T17:07:29.512Z,35.14
2023-08-18T17:12:27.085Z,34.95
2023-08-18T17:17:25.007Z,35.14
2023-08-18T17:22:22.812Z,33.26
2023-08-18T17:27:19.295Z,34.30
2023-08-18T17:32:16.496Z,32.66
2023-08-18T17:37:13.051Z,31.25
2023-08-18T17:42:09.606Z,30.84
2023-08-18T17:47:06.540Z,30.85
2023-08-18T17:52:04.135Z,30.46
2023-08-18T17:57:00.617Z,30.54
2023-08-18T18:01:57.202Z,30.57
2023-08-18T18:06:53.896Z,30.57
2023-08-18T18:11:52.319Z,30.18
2023-08-18T18:16:51.830Z,30.24
2023-08-18T18:21:48.803Z,30.26
2023-08-18T18:26:45.406Z,30.44
2023-08-18T18:31:43.006Z,30.50
2023-08-18T18:36:39.633Z,30.19
2023-08-18T18:41:36.171Z,30.82
2023-08-18T18:46:32.683Z,30.59
2023-08-18T18:51:29.936Z,30.93
2023-08-18T18:56:26.741Z,31.27
2023-08-18T19:01:23.431Z,31.19
2023-08-18T19:06:19.935Z,31.37
2023-08-18T19:11:18.495Z,31.43
2023-08-18T19:16:22.362Z,33.18
2023-08-18T19:21:19.056Z,34.55
2023-08-18T19:26:18.615Z,35.00
2023-08-18T19:31:16.469Z,35.05
2023-08-18T19:36:19.445Z,34.99
2023-08-18T19:41:16.813Z,34.75
2023-08-18T19:46:13.406Z,33.88
2023-08-18T19:51:10.634Z,34.10
2023-08-18T19:56:07.226Z,33.95
2023-08-18T20:01:03.984Z,33.98
2023-08-18T20:06:03.954Z,33.74
2023-08-18T20:11:01.224Z,33.81
2023-08-18T20:15:58.262Z,34.26
2023-08-18T20:20:55.575Z,34.20
2023-08-18T20:25:52.241Z,34.80
2023-08-18T20:30:49.672Z,34.92
2023-08-18T20:35:46.175Z,34.73
2023-08-18T20:40:43.331Z,34.89
2023-08-18T20:45:39.909Z,34.53
2023-08-18T20:50:38.423Z,34.44
2023-08-18T20:55:35.007Z,34.22
2023-08-18T21:00:32.662Z,34.26
2023-08-18T21:05:29.764Z,34.40
2023-08-18T21:10:26.950Z,34.31
2023-08-18T21:15:25.254Z,34.48
2023-08-18T21:20:21.828Z,34.27
2023-08-18T21:25:18.710Z,34.41
2023-08-18T21:30:18.289Z,34.39
2023-08-18T21:35:15.330Z,34.55
2023-08-18T21:40:12.435Z,34.30
2023-08-18T21:45:09.224Z,34.50
2023-08-18T21:50:06.909Z,34.55
2023-08-18T21:55:03.710Z,34.72
2023-08-18T22:00:00.402Z,36.32
2023-08-18T22:04:56.944Z,35.47
2023-08-18T22:09:54.146Z,35.98
2023-08-18T22:14:51.404Z,35.86
2023-08-18T22:19:47.937Z,40.37
2023-08-18T22:24:50.071Z,44.18
2023-08-18T22:29:47.431Z,46.50
2023-08-18T22:34:44.055Z,46.41
2023-08-18T22:39:40.548Z,45.20
2023-08-18T22:44:39.462Z,44.70
2023-08-18T22:49:36.924Z,43.27
2023-08-18T22:54:33.953Z,41.86
2023-08-18T22:59:30.841Z,41.18
2023-08-18T23:04:27.974Z,39.56
2023-08-18T23:09:25.154Z,38.00
2023-08-18T23:14:21.707Z,37.65
2023-08-18T23:19:18.184Z,37.75
2023-08-18T23:24:14.718Z,37.35
2023-08-18T23:29:12.468Z,38.47
2023-08-18T23:34:09.099Z,38.55
2023-08-18T23:39:07.896Z,38.53
2023-08-18T23:44:04.704Z,38.21
2023-08-18T23:49:01.981Z,37.80
2023-08-18T23:53:58.621Z,41.04
2023-08-18T23:58:55.133Z,43.17
